sensor_id;sensor_type;location;lat;lon;timestamp;pressure;altitude;pressure_sealevel;temperature;humidity
59337;BME280;45115;52.002;4.686;2023-06-26T00:00:04;101196.47;;;22.50;66.15
59337;BME280;45115;52.002;4.686;2023-06-26T00:02:32;101197.13;;;22.46;65.96
59337;BME280;45115;52.002;4.686;2023-06-26T00:04:59;101197.53;;;22.36;65.33
59337;BME280;45115;52.002;4.686;2023-06-26T00:07:28;101204.66;;;22.39;65.20
59337;BME280;45115;52.002;4.686;2023-06-26T00:09:55;101208.50;;;22.38;65.42
59337;BME280;45115;52.002;4.686;2023-06-26T00:12:22;101208.06;;;22.34;65.82
59337;BME280;45115;52.002;4.686;2023-06-26T00:14:50;101205.31;;;22.47;65.79
59337;BME280;45115;52.002;4.686;2023-06-26T00:17:17;101218.03;;;22.56;65.34
59337;BME280;45115;52.002;4.686;2023-06-26T00:19:44;101217.34;;;22.48;66.71
59337;BME280;45115;52.002;4.686;2023-06-26T00:22:11;101214.72;;;22.40;67.49
59337;BME280;45115;52.002;4.686;2023-06-26T00:24:37;101229.78;;;22.32;68.79
59337;BME280;45115;52.002;4.686;2023-06-26T00:27:05;101236.63;;;22.30;69.73
59337;BME280;45115;52.002;4.686;2023-06-26T00:29:31;101246.25;;;22.27;70.16
59337;BME280;45115;52.002;4.686;2023-06-26T00:31:59;101250.34;;;22.25;70.05
59337;BME280;45115;52.002;4.686;2023-06-26T00:34:26;101240.44;;;22.15;70.16
59337;BME280;45115;52.002;4.686;2023-06-26T00:36:53;101241.72;;;22.13;69.80
59337;BME280;45115;52.002;4.686;2023-06-26T00:39:20;101251.38;;;22.04;70.44
59337;BME280;45115;52.002;4.686;2023-06-26T00:41:46;101247.91;;;21.95;71.05
59337;BME280;45115;52.002;4.686;2023-06-26T00:44:14;101254.69;;;21.80;72.02
59337;BME280;45115;52.002;4.686;2023-06-26T00:46:41;101259.13;;;21.68;73.20
59337;BME280;45115;52.002;4.686;2023-06-26T00:49:12;101247.50;;;21.58;74.09
59337;BME280;45115;52.002;4.686;2023-06-26T00:51:39;101248.47;;;21.44;74.68
59337;BME280;45115;52.002;4.686;2023-06-26T00:54:06;101252.13;;;21.44;74.32
59337;BME280;45115;52.002;4.686;2023-06-26T00:56:35;101263.88;;;21.40;74.14
59337;BME280;45115;52.002;4.686;2023-06-26T00:59:03;101259.19;;;21.40;73.47
59337;BME280;45115;52.002;4.686;2023-06-26T01:01:30;101263.41;;;21.30;74.55
59337;BME280;45115;52.002;4.686;2023-06-26T01:03:57;101259.50;;;21.24;74.29
59337;BME280;45115;52.002;4.686;2023-06-26T01:06:27;101264.56;;;21.14;75.09
59337;BME280;45115;52.002;4.686;2023-06-26T01:08:58;101255.94;;;21.02;75.65
59337;BME280;45115;52.002;4.686;2023-06-26T01:11:28;101262.06;;;20.98;76.72
59337;BME280;45115;52.002;4.686;2023-06-26T01:13:56;101260.44;;;21.03;76.48
59337;BME280;45115;52.002;4.686;2023-06-26T01:16:24;101263.22;;;21.03;76.48
59337;BME280;45115;52.002;4.686;2023-06-26T01:18:52;101262.75;;;21.00;77.14
59337;BME280;45115;52.002;4.686;2023-06-26T01:21:19;101264.19;;;20.96;77.74
59337;BME280;45115;52.002;4.686;2023-06-26T01:23:57;101263.13;;;20.97;77.90
59337;BME280;45115;52.002;4.686;2023-06-26T01:26:29;101265.47;;;20.93;78.64
59337;BME280;45115;52.002;4.686;2023-06-26T01:28:57;101262.44;;;20.88;78.19
59337;BME280;45115;52.002;4.686;2023-06-26T01:31:26;101267.38;;;20.93;78.38
59337;BME280;45115;52.002;4.686;2023-06-26T01:33:54;101257.53;;;20.90;79.51
59337;BME280;45115;52.002;4.686;2023-06-26T01:36:21;101271.50;;;20.97;78.94
59337;BME280;45115;52.002;4.686;2023-06-26T01:38:49;101253.91;;;20.96;79.08
59337;BME280;45115;52.002;4.686;2023-06-26T01:41:16;101247.13;;;20.99;79.62
59337;BME280;45115;52.002;4.686;2023-06-26T01:43:58;101263.13;;;20.97;79.05
59337;BME280;45115;52.002;4.686;2023-06-26T01:46:35;101257.97;;;20.94;79.62
59337;BME280;45115;52.002;4.686;2023-06-26T01:49:07;101264.59;;;20.93;79.37
59337;BME280;45115;52.002;4.686;2023-06-26T01:51:41;101261.34;;;20.89;79.99
59337;BME280;45115;52.002;4.686;2023-06-26T01:54:10;101272.50;;;20.89;80.12
59337;BME280;45115;52.002;4.686;2023-06-26T01:56:41;101274.81;;;20.86;80.55
59337;BME280;45115;52.002;4.686;2023-06-26T01:59:11;101270.25;;;20.78;80.93
59337;BME280;45115;52.002;4.686;2023-06-26T02:01:39;101268.47;;;20.71;82.00
59337;BME280;45115;52.002;4.686;2023-06-26T02:04:06;101266.03;;;20.61;82.30
59337;BME280;45115;52.002;4.686;2023-06-26T02:06:33;101263.84;;;20.57;82.77
59337;BME280;45115;52.002;4.686;2023-06-26T02:08:59;101262.31;;;20.54;83.26
59337;BME280;45115;52.002;4.686;2023-06-26T02:11:26;101272.31;;;20.49;83.68
59337;BME280;45115;52.002;4.686;2023-06-26T02:13:53;101264.53;;;20.38;84.00
59337;BME280;45115;52.002;4.686;2023-06-26T02:16:21;101276.22;;;20.33;84.17
59337;BME280;45115;52.002;4.686;2023-06-26T02:18:48;101270.41;;;20.28;84.25
59337;BME280;45115;52.002;4.686;2023-06-26T02:21:15;101270.81;;;20.25;84.54
59337;BME280;45115;52.002;4.686;2023-06-26T02:23:42;101276.56;;;20.24;84.35
59337;BME280;45115;52.002;4.686;2023-06-26T02:26:09;101277.41;;;20.24;85.18
59337;BME280;45115;52.002;4.686;2023-06-26T02:28:36;101278.47;;;20.23;85.00
59337;BME280;45115;52.002;4.686;2023-06-26T02:31:03;101278.22;;;20.18;84.59
59337;BME280;45115;52.002;4.686;2023-06-26T02:33:33;101279.25;;;20.17;84.89
59337;BME280;45115;52.002;4.686;2023-06-26T02:36:00;101270.53;;;20.20;84.93
59337;BME280;45115;52.002;4.686;2023-06-26T02:38:26;101282.91;;;20.18;84.36
59337;BME280;45115;52.002;4.686;2023-06-26T02:40:53;101293.00;;;20.19;84.65
59337;BME280;45115;52.002;4.686;2023-06-26T02:43:20;101293.47;;;20.22;83.55
59337;BME280;45115;52.002;4.686;2023-06-26T02:45:47;101294.41;;;20.29;82.62
59337;BME280;45115;52.002;4.686;2023-06-26T02:48:14;101299.56;;;20.32;81.83
59337;BME280;45115;52.002;4.686;2023-06-26T02:50:43;101304.16;;;20.40;81.48
59337;BME280;45115;52.002;4.686;2023-06-26T02:53:13;101289.09;;;20.34;80.73
59337;BME280;45115;52.002;4.686;2023-06-26T02:55:43;101301.84;;;20.43;80.90
59337;BME280;45115;52.002;4.686;2023-06-26T02:58:13;101306.72;;;20.41;80.68
59337;BME280;45115;52.002;4.686;2023-06-26T03:00:39;101304.63;;;20.43;80.30
59337;BME280;45115;52.002;4.686;2023-06-26T03:03:09;101304.31;;;20.38;80.37
59337;BME280;45115;52.002;4.686;2023-06-26T03:05:36;101311.94;;;20.30;79.97
59337;BME280;45115;52.002;4.686;2023-06-26T03:08:05;101311.41;;;20.20;80.94
59337;BME280;45115;52.002;4.686;2023-06-26T03:10:32;101327.72;;;20.08;80.81
59337;BME280;45115;52.002;4.686;2023-06-26T03:12:59;101325.63;;;19.95;81.46
59337;BME280;45115;52.002;4.686;2023-06-26T03:15:26;101317.69;;;19.78;82.10
59337;BME280;45115;52.002;4.686;2023-06-26T03:17:53;101336.47;;;19.76;81.96
59337;BME280;45115;52.002;4.686;2023-06-26T03:20:25;101328.13;;;19.61;83.26
59337;BME280;45115;52.002;4.686;2023-06-26T03:22:58;101334.53;;;19.62;82.84
59337;BME280;45115;52.002;4.686;2023-06-26T03:25:26;101325.84;;;19.50;82.81
59337;BME280;45115;52.002;4.686;2023-06-26T03:28:20;101337.78;;;19.51;83.47
59337;BME280;45115;52.002;4.686;2023-06-26T03:30:47;101346.31;;;19.49;83.75
59337;BME280;45115;52.002;4.686;2023-06-26T03:33:14;101326.78;;;19.43;84.24
59337;BME280;45115;52.002;4.686;2023-06-26T03:35:42;101346.31;;;19.49;83.93
59337;BME280;45115;52.002;4.686;2023-06-26T03:38:11;101340.28;;;19.46;84.29
59337;BME280;45115;52.002;4.686;2023-06-26T03:40:41;101350.56;;;19.45;84.54
59337;BME280;45115;52.002;4.686;2023-06-26T03:43:08;101342.97;;;19.39;84.80
59337;BME280;45115;52.002;4.686;2023-06-26T03:45:51;101351.00;;;19.34;85.16
59337;BME280;45115;52.002;4.686;2023-06-26T03:48:18;101350.69;;;19.29;85.35
59337;BME280;45115;52.002;4.686;2023-06-26T03:50:45;101353.47;;;19.29;85.08
59337;BME280;45115;52.002;4.686;2023-06-26T03:53:12;101359.28;;;19.20;85.44
59337;BME280;45115;52.002;4.686;2023-06-26T03:55:41;101364.53;;;19.15;84.97
59337;BME280;45115;52.002;4.686;2023-06-26T03:58:09;101364.91;;;19.12;85.23
59337;BME280;45115;52.002;4.686;2023-06-26T04:00:37;101361.16;;;19.05;86.13
59337;BME280;45115;52.002;4.686;2023-06-26T04:03:03;101372.97;;;19.07;86.26
59337;BME280;45115;52.002;4.686;2023-06-26T04:05:30;101361.91;;;18.99;86.22
59337;BME280;45115;52.002;4.686;2023-06-26T04:07:57;101378.50;;;19.07;86.83
59337;BME280;45115;52.002;4.686;2023-06-26T04:10:25;101378.38;;;19.00;86.64
59337;BME280;45115;52.002;4.686;2023-06-26T04:12:53;101383.09;;;19.00;86.47
59337;BME280;45115;52.002;4.686;2023-06-26T04:15:20;101386.22;;;18.97;86.69
59337;BME280;45115;52.002;4.686;2023-06-26T04:17:47;101393.22;;;18.92;86.21
59337;BME280;45115;52.002;4.686;2023-06-26T04:20:13;101408.88;;;19.08;86.37
59337;BME280;45115;52.002;4.686;2023-06-26T04:22:40;101405.63;;;19.19;85.31
59337;BME280;45115;52.002;4.686;2023-06-26T04:25:08;101408.88;;;19.23;84.86
59337;BME280;45115;52.002;4.686;2023-06-26T04:27:34;101421.25;;;19.20;85.32
59337;BME280;45115;52.002;4.686;2023-06-26T04:30:03;101409.34;;;19.34;84.07
59337;BME280;45115;52.002;4.686;2023-06-26T04:32:30;101423.13;;;19.79;82.12
59337;BME280;45115;52.002;4.686;2023-06-26T04:34:57;101422.41;;;20.29;79.92
59337;BME280;45115;52.002;4.686;2023-06-26T04:37:24;101417.19;;;20.26;78.96
59337;BME280;45115;52.002;4.686;2023-06-26T04:39:50;101417.94;;;20.06;79.51
59337;BME280;45115;52.002;4.686;2023-06-26T04:42:17;101414.47;;;20.47;78.22
59337;BME280;45115;52.002;4.686;2023-06-26T04:44:47;101418.72;;;21.42;74.37
59337;BME280;45115;52.002;4.686;2023-06-26T04:47:15;101426.63;;;21.87;71.53
59337;BME280;45115;52.002;4.686;2023-06-26T04:49:42;101422.44;;;22.04;70.37
59337;BME280;45115;52.002;4.686;2023-06-26T04:52:11;101427.47;;;22.22;68.97
59337;BME280;45115;52.002;4.686;2023-06-26T04:54:38;101431.88;;;22.03;69.57
59337;BME280;45115;52.002;4.686;2023-06-26T04:57:05;101440.59;;;21.18;72.71
59337;BME280;45115;52.002;4.686;2023-06-26T04:59:34;101440.97;;;20.79;74.01
59337;BME280;45115;52.002;4.686;2023-06-26T05:02:00;101439.59;;;20.89;75.14
59337;BME280;45115;52.002;4.686;2023-06-26T05:04:29;101449.44;;;22.32;69.77
59337;BME280;45115;52.002;4.686;2023-06-26T05:06:55;101437.53;;;23.17;66.09
59337;BME280;45115;52.002;4.686;2023-06-26T05:09:22;101436.03;;;23.93;63.09
59337;BME280;45115;52.002;4.686;2023-06-26T05:11:49;101442.88;;;24.37;60.67
59337;BME280;45115;52.002;4.686;2023-06-26T05:14:16;101442.81;;;25.38;57.54
59337;BME280;45115;52.002;4.686;2023-06-26T05:16:42;101446.16;;;25.78;54.83
59337;BME280;45115;52.002;4.686;2023-06-26T05:19:09;101453.84;;;26.13;54.21
59337;BME280;45115;52.002;4.686;2023-06-26T05:21:38;101462.75;;;25.79;54.52
59337;BME280;45115;52.002;4.686;2023-06-26T05:24:06;101458.56;;;25.88;54.68
59337;BME280;45115;52.002;4.686;2023-06-26T05:26:34;101464.09;;;25.46;55.99
59337;BME280;45115;52.002;4.686;2023-06-26T05:29:01;101464.75;;;25.97;54.50
59337;BME280;45115;52.002;4.686;2023-06-26T05:31:30;101470.34;;;26.03;54.38
59337;BME280;45115;52.002;4.686;2023-06-26T05:34:02;101484.34;;;25.79;55.13
59337;BME280;45115;52.002;4.686;2023-06-26T05:36:31;101473.25;;;25.34;55.70
59337;BME280;45115;52.002;4.686;2023-06-26T05:39:00;101487.16;;;24.79;56.80
59337;BME280;45115;52.002;4.686;2023-06-26T05:41:28;101475.06;;;25.16;56.63
59337;BME280;45115;52.002;4.686;2023-06-26T05:44:04;101499.59;;;25.89;53.58
59337;BME280;45115;52.002;4.686;2023-06-26T05:46:31;101496.44;;;25.79;53.59
59337;BME280;45115;52.002;4.686;2023-06-26T05:48:57;101504.16;;;26.76;52.75
59337;BME280;45115;52.002;4.686;2023-06-26T05:51:30;101514.22;;;25.73;54.16
59337;BME280;45115;52.002;4.686;2023-06-26T05:53:57;101513.91;;;25.12;56.21
59337;BME280;45115;52.002;4.686;2023-06-26T05:56:26;101499.22;;;24.73;55.13
59337;BME280;45115;52.002;4.686;2023-06-26T05:58:53;101523.50;;;24.02;56.37
59337;BME280;45115;52.002;4.686;2023-06-26T06:01:20;101513.13;;;23.96;56.70
59337;BME280;45115;52.002;4.686;2023-06-26T06:03:47;101526.00;;;22.91;59.87
59337;BME280;45115;52.002;4.686;2023-06-26T06:06:13;101508.78;;;24.46;55.58
59337;BME280;45115;52.002;4.686;2023-06-26T06:08:41;101512.84;;;25.13;52.86
59337;BME280;45115;52.002;4.686;2023-06-26T06:11:08;101512.34;;;24.85;52.53
59337;BME280;45115;52.002;4.686;2023-06-26T06:13:36;101523.34;;;24.74;52.82
59337;BME280;45115;52.002;4.686;2023-06-26T06:16:03;101533.44;;;25.32;50.36
59337;BME280;45115;52.002;4.686;2023-06-26T06:18:30;101540.78;;;25.40;49.99
59337;BME280;45115;52.002;4.686;2023-06-26T06:20:57;101542.00;;;25.50;48.86
59337;BME280;45115;52.002;4.686;2023-06-26T06:23:23;101545.25;;;25.78;49.20
59337;BME280;45115;52.002;4.686;2023-06-26T06:25:50;101546.34;;;25.77;48.50
59337;BME280;45115;52.002;4.686;2023-06-26T06:28:17;101569.59;;;25.53;48.89
59337;BME280;45115;52.002;4.686;2023-06-26T06:30:45;101565.63;;;25.29;50.30
59337;BME280;45115;52.002;4.686;2023-06-26T06:33:13;101567.19;;;25.12;50.33
59337;BME280;45115;52.002;4.686;2023-06-26T06:35:39;101569.69;;;24.83;51.38
59337;BME280;45115;52.002;4.686;2023-06-26T06:38:06;101573.34;;;23.53;55.31
59337;BME280;45115;52.002;4.686;2023-06-26T06:40:33;101582.28;;;22.54;57.90
59337;BME280;45115;52.002;4.686;2023-06-26T06:43:00;101584.63;;;21.95;59.44
59337;BME280;45115;52.002;4.686;2023-06-26T06:45:26;101586.63;;;21.59;61.53
59337;BME280;45115;52.002;4.686;2023-06-26T06:47:54;101591.53;;;21.57;61.77
59337;BME280;45115;52.002;4.686;2023-06-26T06:50:21;101588.75;;;22.88;58.07
59337;BME280;45115;52.002;4.686;2023-06-26T06:52:48;101597.88;;;23.64;55.04
59337;BME280;45115;52.002;4.686;2023-06-26T06:55:15;101605.31;;;25.26;50.41
59337;BME280;45115;52.002;4.686;2023-06-26T06:57:42;101603.69;;;25.88;47.71
59337;BME280;45115;52.002;4.686;2023-06-26T07:00:10;101608.81;;;26.53;46.57
59337;BME280;45115;52.002;4.686;2023-06-26T07:02:38;101608.72;;;25.79;46.91
59337;BME280;45115;52.002;4.686;2023-06-26T07:05:07;101606.34;;;25.45;47.74
59337;BME280;45115;52.002;4.686;2023-06-26T07:07:35;101608.00;;;25.02;48.91
59337;BME280;45115;52.002;4.686;2023-06-26T07:10:04;101615.59;;;24.88;49.85
59337;BME280;45115;52.002;4.686;2023-06-26T07:12:30;101610.84;;;24.89;51.10
59337;BME280;45115;52.002;4.686;2023-06-26T07:14:57;101611.53;;;25.35;49.47
59337;BME280;45115;52.002;4.686;2023-06-26T07:17:24;101609.00;;;25.71;48.94
59337;BME280;45115;52.002;4.686;2023-06-26T07:19:51;101616.16;;;26.29;46.60
59337;BME280;45115;52.002;4.686;2023-06-26T07:22:19;101617.75;;;24.93;49.05
59337;BME280;45115;52.002;4.686;2023-06-26T07:24:46;101624.47;;;25.43;49.38
59337;BME280;45115;52.002;4.686;2023-06-26T07:27:14;101625.75;;;26.22;46.73
59337;BME280;45115;52.002;4.686;2023-06-26T07:29:40;101633.22;;;25.66;48.29
59337;BME280;45115;52.002;4.686;2023-06-26T07:32:07;101643.06;;;25.44;47.86
59337;BME280;45115;52.002;4.686;2023-06-26T07:34:34;101644.94;;;25.94;47.14
59337;BME280;45115;52.002;4.686;2023-06-26T07:37:01;101639.22;;;26.07;46.18
59337;BME280;45115;52.002;4.686;2023-06-26T07:39:29;101653.25;;;26.87;44.82
59337;BME280;45115;52.002;4.686;2023-06-26T07:41:56;101643.63;;;27.37;43.08
59337;BME280;45115;52.002;4.686;2023-06-26T07:44:24;101651.25;;;27.12;44.45
59337;BME280;45115;52.002;4.686;2023-06-26T07:46:51;101649.03;;;26.29;45.59
59337;BME280;45115;52.002;4.686;2023-06-26T07:49:18;101658.03;;;25.69;47.34
59337;BME280;45115;52.002;4.686;2023-06-26T07:51:45;101661.59;;;25.89;46.61
59337;BME280;45115;52.002;4.686;2023-06-26T07:54:11;101657.38;;;25.73;46.93
59337;BME280;45115;52.002;4.686;2023-06-26T07:56:54;101657.91;;;25.51;46.52
59337;BME280;45115;52.002;4.686;2023-06-26T07:59:22;101662.03;;;26.23;44.81
59337;BME280;45115;52.002;4.686;2023-06-26T08:01:50;101665.69;;;26.98;44.16
59337;BME280;45115;52.002;4.686;2023-06-26T08:04:17;101669.44;;;26.92;42.80
59337;BME280;45115;52.002;4.686;2023-06-26T08:06:44;101662.91;;;27.16;43.48
59337;BME280;45115;52.002;4.686;2023-06-26T08:09:11;101662.56;;;27.30;43.51
59337;BME280;45115;52.002;4.686;2023-06-26T08:11:38;101672.44;;;27.69;42.73
59337;BME280;45115;52.002;4.686;2023-06-26T08:14:06;101672.88;;;27.84;41.92
59337;BME280;45115;52.002;4.686;2023-06-26T08:16:32;101663.81;;;28.12;41.70
59337;BME280;45115;52.002;4.686;2023-06-26T08:18:59;101665.41;;;28.08;40.50
59337;BME280;45115;52.002;4.686;2023-06-26T08:21:26;101676.19;;;27.45;41.73
59337;BME280;45115;52.002;4.686;2023-06-26T08:23:53;101689.06;;;27.41;41.10
59337;BME280;45115;52.002;4.686;2023-06-26T08:26:20;101694.63;;;26.31;43.07
59337;BME280;45115;52.002;4.686;2023-06-26T08:28:46;101696.22;;;26.76;42.33
59337;BME280;45115;52.002;4.686;2023-06-26T08:31:15;101697.34;;;26.93;42.68
59337;BME280;45115;52.002;4.686;2023-06-26T08:33:42;101683.97;;;26.89;42.28
59337;BME280;45115;52.002;4.686;2023-06-26T08:36:11;101671.25;;;27.04;42.44
59337;BME280;45115;52.002;4.686;2023-06-26T08:38:38;101690.41;;;27.68;40.21
59337;BME280;45115;52.002;4.686;2023-06-26T08:41:05;101698.09;;;25.89;43.63
59337;BME280;45115;52.002;4.686;2023-06-26T08:43:32;101696.41;;;25.24;45.86
59337;BME280;45115;52.002;4.686;2023-06-26T08:45:59;101703.28;;;25.85;44.67
59337;BME280;45115;52.002;4.686;2023-06-26T08:48:29;101709.44;;;26.13;43.88
59337;BME280;45115;52.002;4.686;2023-06-26T08:51:09;101706.91;;;26.30;43.45
59337;BME280;45115;52.002;4.686;2023-06-26T08:53:44;101715.94;;;26.38;43.66
59337;BME280;45115;52.002;4.686;2023-06-26T08:56:15;101710.78;;;26.60;42.23
59337;BME280;45115;52.002;4.686;2023-06-26T08:58:43;101711.00;;;25.96;44.69
59337;BME280;45115;52.002;4.686;2023-06-26T09:01:10;101709.97;;;26.84;42.91
59337;BME280;45115;52.002;4.686;2023-06-26T09:03:39;101714.72;;;25.90;44.03
59337;BME280;45115;52.002;4.686;2023-06-26T09:06:07;101714.63;;;26.10;43.62
59337;BME280;45115;52.002;4.686;2023-06-26T09:08:36;101709.69;;;26.68;41.94
59337;BME280;45115;52.002;4.686;2023-06-26T09:11:03;101706.03;;;26.05;43.37
59337;BME280;45115;52.002;4.686;2023-06-26T09:13:30;101726.47;;;25.68;43.55
59337;BME280;45115;52.002;4.686;2023-06-26T09:15:58;101718.72;;;25.63;44.24
59337;BME280;45115;52.002;4.686;2023-06-26T09:18:24;101734.03;;;25.67;43.66
59337;BME280;45115;52.002;4.686;2023-06-26T09:20:54;101734.50;;;25.64;43.52
59337;BME280;45115;52.002;4.686;2023-06-26T09:23:21;101739.50;;;25.56;44.37
59337;BME280;45115;52.002;4.686;2023-06-26T09:25:48;101737.34;;;25.95;42.65
59337;BME280;45115;52.002;4.686;2023-06-26T09:28:23;101740.03;;;25.77;42.87
59337;BME280;45115;52.002;4.686;2023-06-26T09:30:51;101747.00;;;26.19;42.98
59337;BME280;45115;52.002;4.686;2023-06-26T09:33:20;101748.66;;;26.89;41.47
59337;BME280;45115;52.002;4.686;2023-06-26T09:35:47;101761.03;;;26.19;41.50
59337;BME280;45115;52.002;4.686;2023-06-26T09:38:15;101760.72;;;24.73;45.29
59337;BME280;45115;52.002;4.686;2023-06-26T09:40:43;101758.75;;;25.26;45.11
59337;BME280;45115;52.002;4.686;2023-06-26T09:43:13;101750.34;;;25.90;43.20
59337;BME280;45115;52.002;4.686;2023-06-26T09:45:40;101757.38;;;25.61;42.95
59337;BME280;45115;52.002;4.686;2023-06-26T09:48:07;101778.19;;;24.88;45.50
59337;BME280;45115;52.002;4.686;2023-06-26T09:50:34;101782.44;;;24.58;46.64
59337;BME280;45115;52.002;4.686;2023-06-26T09:53:07;101771.94;;;24.99;44.71
59337;BME280;45115;52.002;4.686;2023-06-26T09:55:37;101784.38;;;25.49;44.45
59337;BME280;45115;52.002;4.686;2023-06-26T09:58:05;101780.88;;;25.67;44.60
59337;BME280;45115;52.002;4.686;2023-06-26T10:00:32;101790.47;;;26.03;42.94
59337;BME280;45115;52.002;4.686;2023-06-26T10:02:59;101793.22;;;25.59;43.91
59337;BME280;45115;52.002;4.686;2023-06-26T10:05:26;101787.81;;;25.64;43.87
59337;BME280;45115;52.002;4.686;2023-06-26T10:07:54;101784.53;;;25.74;43.78
59337;BME280;45115;52.002;4.686;2023-06-26T10:10:22;101789.22;;;26.75;42.83
59337;BME280;45115;52.002;4.686;2023-06-26T10:12:55;101790.72;;;27.02;41.22
59337;BME280;45115;52.002;4.686;2023-06-26T10:15:26;101793.75;;;27.25;40.65
59337;BME280;45115;52.002;4.686;2023-06-26T10:17:55;101804.50;;;25.13;45.71
59337;BME280;45115;52.002;4.686;2023-06-26T10:20:22;101807.72;;;24.97;46.74
59337;BME280;45115;52.002;4.686;2023-06-26T10:22:51;101811.38;;;25.50;45.83
59337;BME280;45115;52.002;4.686;2023-06-26T10:25:19;101801.66;;;25.59;45.45
59337;BME280;45115;52.002;4.686;2023-06-26T10:27:50;101813.56;;;25.42;44.21
59337;BME280;45115;52.002;4.686;2023-06-26T10:30:22;101805.59;;;26.09;45.06
59337;BME280;45115;52.002;4.686;2023-06-26T10:32:51;101815.66;;;26.23;44.88
59337;BME280;45115;52.002;4.686;2023-06-26T10:35:18;101808.34;;;25.52;44.29
59337;BME280;45115;52.002;4.686;2023-06-26T10:37:47;101820.19;;;25.60;44.83
59337;BME280;45115;52.002;4.686;2023-06-26T10:40:25;101818.06;;;25.43;43.65
59337;BME280;45115;52.002;4.686;2023-06-26T10:43:05;101822.63;;;25.17;44.95
59337;BME280;45115;52.002;4.686;2023-06-26T10:45:36;101823.19;;;24.61;46.94
59337;BME280;45115;52.002;4.686;2023-06-26T10:48:03;101823.47;;;25.05;45.54
59337;BME280;45115;52.002;4.686;2023-06-26T10:50:32;101832.31;;;24.95;44.54
59337;BME280;45115;52.002;4.686;2023-06-26T10:53:11;101823.69;;;25.43;44.25
59337;BME280;45115;52.002;4.686;2023-06-26T10:55:48;101832.78;;;25.38;40.31
59337;BME280;45115;52.002;4.686;2023-06-26T10:58:33;101830.00;;;24.25;43.39
59337;BME280;45115;52.002;4.686;2023-06-26T11:01:20;101839.41;;;24.78;41.40
59337;BME280;45115;52.002;4.686;2023-06-26T11:03:49;101853.22;;;24.80;41.86
59337;BME280;45115;52.002;4.686;2023-06-26T11:06:27;101849.53;;;24.73;41.94
59337;BME280;45115;52.002;4.686;2023-06-26T11:09:00;101849.53;;;25.71;41.40
59337;BME280;45115;52.002;4.686;2023-06-26T11:11:57;101845.78;;;26.54;39.51
59337;BME280;45115;52.002;4.686;2023-06-26T11:14:27;101850.94;;;26.12;39.53
59337;BME280;45115;52.002;4.686;2023-06-26T11:16:56;101849.94;;;26.44;38.50
59337;BME280;45115;52.002;4.686;2023-06-26T11:19:26;101856.41;;;26.83;38.59
59337;BME280;45115;52.002;4.686;2023-06-26T11:22:02;101859.63;;;26.86;37.93
59337;BME280;45115;52.002;4.686;2023-06-26T11:24:30;101858.88;;;26.73;37.96
59337;BME280;45115;52.002;4.686;2023-06-26T11:27:00;101861.97;;;26.01;39.29
59337;BME280;45115;52.002;4.686;2023-06-26T11:29:28;101874.88;;;26.66;38.23
59337;BME280;45115;52.002;4.686;2023-06-26T11:32:04;101877.38;;;26.87;38.82
59337;BME280;45115;52.002;4.686;2023-06-26T11:34:32;101871.94;;;26.48;38.85
59337;BME280;45115;52.002;4.686;2023-06-26T11:37:00;101884.53;;;25.62;41.56
59337;BME280;45115;52.002;4.686;2023-06-26T11:39:30;101890.78;;;25.70;40.56
59337;BME280;45115;52.002;4.686;2023-06-26T11:41:57;101891.00;;;25.62;39.60
59337;BME280;45115;52.002;4.686;2023-06-26T11:44:24;101906.81;;;24.64;42.00
59337;BME280;45115;52.002;4.686;2023-06-26T11:46:54;101905.50;;;24.53;41.40
59337;BME280;45115;52.002;4.686;2023-06-26T11:49:22;101904.78;;;25.18;41.36
59337;BME280;45115;52.002;4.686;2023-06-26T11:51:51;101907.63;;;25.31;40.02
59337;BME280;45115;52.002;4.686;2023-06-26T11:54:23;101914.09;;;25.12;39.35
59337;BME280;45115;52.002;4.686;2023-06-26T11:56:57;101919.03;;;25.75;39.37
59337;BME280;45115;52.002;4.686;2023-06-26T11:59:26;101916.50;;;26.44;38.01
59337;BME280;45115;52.002;4.686;2023-06-26T12:01:58;101917.06;;;26.66;36.99
59337;BME280;45115;52.002;4.686;2023-06-26T12:04:26;101915.34;;;27.02;36.59
59337;BME280;45115;52.002;4.686;2023-06-26T12:06:53;101913.41;;;26.59;37.07
59337;BME280;45115;52.002;4.686;2023-06-26T12:09:23;101907.41;;;25.72;37.64
59337;BME280;45115;52.002;4.686;2023-06-26T12:11:53;101913.00;;;25.85;38.50
59337;BME280;45115;52.002;4.686;2023-06-26T12:14:20;101914.56;;;25.61;39.25
59337;BME280;45115;52.002;4.686;2023-06-26T12:16:48;101924.69;;;25.56;38.04
59337;BME280;45115;52.002;4.686;2023-06-26T12:19:15;101934.38;;;25.79;40.03
59337;BME280;45115;52.002;4.686;2023-06-26T12:21:49;101933.53;;;25.85;38.86
59337;BME280;45115;52.002;4.686;2023-06-26T12:24:19;101941.50;;;26.08;40.58
59337;BME280;45115;52.002;4.686;2023-06-26T12:26:47;101944.47;;;25.02;39.41
59337;BME280;45115;52.002;4.686;2023-06-26T12:29:15;101944.00;;;24.79;40.92
59337;BME280;45115;52.002;4.686;2023-06-26T12:31:44;101939.31;;;25.25;40.40
59337;BME280;45115;52.002;4.686;2023-06-26T12:34:13;101942.25;;;24.84;41.64
59337;BME280;45115;52.002;4.686;2023-06-26T12:36:43;101949.47;;;25.19;39.57
59337;BME280;45115;52.002;4.686;2023-06-26T12:39:12;101949.91;;;25.16;40.54
59337;BME280;45115;52.002;4.686;2023-06-26T12:41:48;101946.22;;;24.96;41.18
59337;BME280;45115;52.002;4.686;2023-06-26T12:44:23;101957.16;;;24.85;40.98
59337;BME280;45115;52.002;4.686;2023-06-26T12:46:54;101946.16;;;24.90;41.32
59337;BME280;45115;52.002;4.686;2023-06-26T12:49:29;101958.03;;;24.92;41.12
59337;BME280;45115;52.002;4.686;2023-06-26T12:51:56;101956.34;;;24.97;41.30
59337;BME280;45115;52.002;4.686;2023-06-26T12:54:24;101944.94;;;24.52;42.62
59337;BME280;45115;52.002;4.686;2023-06-26T12:56:51;101951.88;;;24.69;42.08